sensor_id;sensor_type;location;lat;lon;timestamp;temperature;humidity
1978;DHT22;989;53.016;8.346;2023-01-28T00:00:33;2.10;1.00
1978;DHT22;989;53.016;8.346;2023-01-28T00:02:59;2.10;1.00
1978;DHT22;989;53.016;8.346;2023-01-28T00:05:24;2.30;1.00
1978;DHT22;989;53.016;8.346;2023-01-28T00:07:50;2.30;1.00
1978;DHT22;989;53.016;8.346;2023-01-28T00:10:16;2.30;1.00
1978;DHT22;989;53.016;8.346;2023-01-28T00:12:42;2.20;1.00
1978;DHT22;989;53.016;8.346;2023-01-28T00:15:08;2.20;1.00
1978;DHT22;989;53.016;8.346;2023-01-28T00:17:35;2.10;1.00
1978;DHT22;989;53.016;8.346;2023-01-28T00:20:04;2.00;1.00
1978;DHT22;989;53.016;8.346;2023-01-28T00:22:31;2.00;1.00
1978;DHT22;989;53.016;8.346;2023-01-28T00:24:57;1.90;1.00
1978;DHT22;989;53.016;8.346;2023-01-28T00:27:23;1.90;1.00
1978;DHT22;989;53.016;8.346;2023-01-28T00:29:48;2.00;1.00
1978;DHT22;989;53.016;8.346;2023-01-28T00:32:14;1.90;1.00
1978;DHT22;989;53.016;8.346;2023-01-28T00:34:40;1.90;1.00
1978;DHT22;989;53.016;8.346;2023-01-28T00:37:05;1.90;1.00
1978;DHT22;989;53.016;8.346;2023-01-28T00:39:31;2.00;1.00
1978;DHT22;989;53.016;8.346;2023-01-28T00:41:57;2.10;1.00
1978;DHT22;989;53.016;8.346;2023-01-28T00:44:22;2.00;1.00
1978;DHT22;989;53.016;8.346;2023-01-28T00:46:48;2.00;1.00
1978;DHT22;989;53.016;8.346;2023-01-28T00:49:14;2.00;1.00
1978;DHT22;989;53.016;8.346;2023-01-28T00:51:39;2.00;1.00
1978;DHT22;989;53.016;8.346;2023-01-28T00:54:05;2.00;1.00
1978;DHT22;989;53.016;8.346;2023-01-28T00:56:31;1.90;1.00
1978;DHT22;989;53.016;8.346;2023-01-28T00:58:56;1.90;1.00
1978;DHT22;989;53.016;8.346;2023-01-28T01:01:25;2.00;1.00
1978;DHT22;989;53.016;8.346;2023-01-28T01:03:52;2.00;1.00
1978;DHT22;989;53.016;8.346;2023-01-28T01:06:27;2.00;1.00
1978;DHT22;989;53.016;8.346;2023-01-28T01:08:55;2.00;1.00
1978;DHT22;989;53.016;8.346;2023-01-28T01:11:21;2.00;1.00
1978;DHT22;989;53.016;8.346;2023-01-28T01:13:52;1.90;1.00
1978;DHT22;989;53.016;8.346;2023-01-28T01:16:20;1.90;1.00
1978;DHT22;989;53.016;8.346;2023-01-28T01:18:46;1.90;1.00
1978;DHT22;989;53.016;8.346;2023-01-28T01:21:14;1.90;1.00
1978;DHT22;989;53.016;8.346;2023-01-28T01:23:42;1.80;1.00
1978;DHT22;989;53.016;8.346;2023-01-28T01:26:09;1.80;1.00
1978;DHT22;989;53.016;8.346;2023-01-28T01:28:35;1.80;1.00
1978;DHT22;989;53.016;8.346;2023-01-28T01:31:04;1.80;1.00
1978;DHT22;989;53.016;8.346;2023-01-28T01:33:39;1.70;1.00
1978;DHT22;989;53.016;8.346;2023-01-28T01:36:06;1.70;1.00
1978;DHT22;989;53.016;8.346;2023-01-28T01:38:33;1.70;1.00
1978;DHT22;989;53.016;8.346;2023-01-28T01:41:00;1.80;1.00
1978;DHT22;989;53.016;8.346;2023-01-28T01:46:17;1.80;1.00
1978;DHT22;989;53.016;8.346;2023-01-28T01:48:45;1.70;1.00
1978;DHT22;989;53.016;8.346;2023-01-28T01:51:17;1.70;1.00
1978;DHT22;989;53.016;8.346;2023-01-28T01:53:48;1.60;1.00
1978;DHT22;989;53.016;8.346;2023-01-28T01:56:18;1.60;1.00
1978;DHT22;989;53.016;8.346;2023-01-28T01:58:49;1.60;1.00
1978;DHT22;989;53.016;8.346;2023-01-28T02:01:25;1.60;1.00
1978;DHT22;989;53.016;8.346;2023-01-28T02:04:00;1.50;1.00
1978;DHT22;989;53.016;8.346;2023-01-28T02:06:30;1.50;1.00
1978;DHT22;989;53.016;8.346;2023-01-28T02:08:56;1.50;1.00
1978;DHT22;989;53.016;8.346;2023-01-28T02:11:26;1.40;1.00
1978;DHT22;989;53.016;8.346;2023-01-28T02:13:57;1.40;1.00
1978;DHT22;989;53.016;8.346;2023-01-28T02:16:25;1.30;1.00
1978;DHT22;989;53.016;8.346;2023-01-28T02:18:52;1.30;1.00
1978;DHT22;989;53.016;8.346;2023-01-28T02:30:34;1.50;1.00
1978;DHT22;989;53.016;8.346;2023-01-28T02:33:09;1.40;1.00
1978;DHT22;989;53.016;8.346;2023-01-28T02:35:54;1.30;1.00
1978;DHT22;989;53.016;8.346;2023-01-28T02:38:35;1.40;1.00
1978;DHT22;989;53.016;8.346;2023-01-28T02:41:07;1.30;1.00
1978;DHT22;989;53.016;8.346;2023-01-28T02:43:39;1.20;1.00
1978;DHT22;989;53.016;8.346;2023-01-28T02:49:13;1.20;1.00
1978;DHT22;989;53.016;8.346;2023-01-28T02:55:51;1.20;1.00
1978;DHT22;989;53.016;8.346;2023-01-28T02:58:25;1.20;1.00
1978;DHT22;989;53.016;8.346;2023-01-28T03:06:21;1.00;1.00
1978;DHT22;989;53.016;8.346;2023-01-28T03:08:58;0.90;1.00
1978;DHT22;989;53.016;8.346;2023-01-28T03:11:57;0.90;1.00
1978;DHT22;989;53.016;8.346;2023-01-28T03:14:50;0.90;1.00
1978;DHT22;989;53.016;8.346;2023-01-28T03:17:42;0.80;1.00
1978;DHT22;989;53.016;8.346;2023-01-28T03:20:37;0.80;1.00
1978;DHT22;989;53.016;8.346;2023-01-28T03:23:36;0.80;1.00
1978;DHT22;989;53.016;8.346;2023-01-28T03:26:26;0.80;1.00
1978;DHT22;989;53.016;8.346;2023-01-28T03:29:13;0.80;1.00
1978;DHT22;989;53.016;8.346;2023-01-28T03:31:58;0.70;1.00
1978;DHT22;989;53.016;8.346;2023-01-28T03:34:44;0.80;1.00
1978;DHT22;989;53.016;8.346;2023-01-28T03:37:29;0.90;1.00
1978;DHT22;989;53.016;8.346;2023-01-28T03:40:01;0.80;1.00
1978;DHT22;989;53.016;8.346;2023-01-28T03:42:29;0.90;1.00
1978;DHT22;989;53.016;8.346;2023-01-28T03:44:56;1.00;1.00
1978;DHT22;989;53.016;8.346;2023-01-28T03:47:24;1.00;1.00
1978;DHT22;989;53.016;8.346;2023-01-28T03:49:53;1.10;1.00
1978;DHT22;989;53.016;8.346;2023-01-28T03:52:29;1.00;1.00
1978;DHT22;989;53.016;8.346;2023-01-28T03:54:56;1.00;1.00
1978;DHT22;989;53.016;8.346;2023-01-28T03:57:25;1.00;1.00
1978;DHT22;989;53.016;8.346;2023-01-28T03:59:52;1.00;1.00
1978;DHT22;989;53.016;8.346;2023-01-28T04:02:22;1.20;1.00
1978;DHT22;989;53.016;8.346;2023-01-28T04:04:48;1.20;1.00
1978;DHT22;989;53.016;8.346;2023-01-28T04:07:14;1.20;1.00
1978;DHT22;989;53.016;8.346;2023-01-28T04:09:41;1.10;1.00
1978;DHT22;989;53.016;8.346;2023-01-28T04:12:08;1.10;1.00
1978;DHT22;989;53.016;8.346;2023-01-28T04:14:35;1.10;1.00
1978;DHT22;989;53.016;8.346;2023-01-28T04:17:00;1.10;1.00
1978;DHT22;989;53.016;8.346;2023-01-28T04:19:26;1.10;1.00
1978;DHT22;989;53.016;8.346;2023-01-28T04:21:53;1.00;1.00
1978;DHT22;989;53.016;8.346;2023-01-28T04:24:20;0.90;1.00
1978;DHT22;989;53.016;8.346;2023-01-28T04:26:46;0.90;1.00
1978;DHT22;989;53.016;8.346;2023-01-28T04:29:11;0.80;1.00
1978;DHT22;989;53.016;8.346;2023-01-28T04:31:37;0.80;1.00
1978;DHT22;989;53.016;8.346;2023-01-28T04:34:03;0.70;1.00
1978;DHT22;989;53.016;8.346;2023-01-28T04:36:28;0.70;1.00
1978;DHT22;989;53.016;8.346;2023-01-28T04:38:54;0.70;1.00
1978;DHT22;989;53.016;8.346;2023-01-28T04:41:20;0.70;1.00
1978;DHT22;989;53.016;8.346;2023-01-28T04:43:45;0.50;1.00
1978;DHT22;989;53.016;8.346;2023-01-28T04:46:14;0.40;1.00
1978;DHT22;989;53.016;8.346;2023-01-28T04:48:40;0.40;1.00
1978;DHT22;989;53.016;8.346;2023-01-28T04:51:06;0.40;1.00
1978;DHT22;989;53.016;8.346;2023-01-28T04:53:32;0.20;1.00
1978;DHT22;989;53.016;8.346;2023-01-28T04:55:58;0.10;1.00
1978;DHT22;989;53.016;8.346;2023-01-28T04:58:24;-0.10;1.00
1978;DHT22;989;53.016;8.346;2023-01-28T05:00:57;-0.40;1.00
1978;DHT22;989;53.016;8.346;2023-01-28T05:03:23;-0.50;1.00
1978;DHT22;989;53.016;8.346;2023-01-28T05:05:50;-0.60;1.00
1978;DHT22;989;53.016;8.346;2023-01-28T05:08:16;-0.80;1.00
1978;DHT22;989;53.016;8.346;2023-01-28T05:10:42;-1.10;1.00
1978;DHT22;989;53.016;8.346;2023-01-28T05:13:07;-1.20;1.00
1978;DHT22;989;53.016;8.346;2023-01-28T05:15:33;-1.20;1.00
1978;DHT22;989;53.016;8.346;2023-01-28T05:17:59;-1.30;1.00
1978;DHT22;989;53.016;8.346;2023-01-28T05:20:25;-1.30;1.00
1978;DHT22;989;53.016;8.346;2023-01-28T05:22:51;-1.40;1.00
1978;DHT22;989;53.016;8.346;2023-01-28T05:25:17;-1.60;1.00
1978;DHT22;989;53.016;8.346;2023-01-28T05:27:42;-2.00;1.00
1978;DHT22;989;53.016;8.346;2023-01-28T05:30:09;-2.10;1.00
1978;DHT22;989;53.016;8.346;2023-01-28T05:32:35;-2.20;1.00
1978;DHT22;989;53.016;8.346;2023-01-28T05:35:01;-2.30;1.00
1978;DHT22;989;53.016;8.346;2023-01-28T05:37:26;-2.30;1.00
1978;DHT22;989;53.016;8.346;2023-01-28T05:39:52;-2.60;1.00
1978;DHT22;989;53.016;8.346;2023-01-28T05:42:18;-2.70;1.00
1978;DHT22;989;53.016;8.346;2023-01-28T05:44:45;-2.60;1.00
1978;DHT22;989;53.016;8.346;2023-01-28T05:47:11;-2.40;1.00
1978;DHT22;989;53.016;8.346;2023-01-28T05:49:36;-2.10;1.00
1978;DHT22;989;53.016;8.346;2023-01-28T05:52:02;-2.10;1.00
1978;DHT22;989;53.016;8.346;2023-01-28T05:54:28;-2.30;1.00
1978;DHT22;989;53.016;8.346;2023-01-28T05:56:53;-2.60;1.00
1978;DHT22;989;53.016;8.346;2023-01-28T05:59:19;-2.80;1.00
1978;DHT22;989;53.016;8.346;2023-01-28T06:01:44;-3.00;1.00
1978;DHT22;989;53.016;8.346;2023-01-28T06:04:10;-3.00;1.00
1978;DHT22;989;53.016;8.346;2023-01-28T06:06:36;-3.10;1.00
1978;DHT22;989;53.016;8.346;2023-01-28T06:09:01;-3.20;1.00
1978;DHT22;989;53.016;8.346;2023-01-28T06:11:27;-3.20;1.00
1978;DHT22;989;53.016;8.346;2023-01-28T06:13:52;-3.20;1.00
1978;DHT22;989;53.016;8.346;2023-01-28T06:16:18;-2.90;1.00
1978;DHT22;989;53.016;8.346;2023-01-28T06:18:44;-2.30;1.00
1978;DHT22;989;53.016;8.346;2023-01-28T06:21:09;-2.30;1.00
1978;DHT22;989;53.016;8.346;2023-01-28T06:23:35;-2.50;1.00
1978;DHT22;989;53.016;8.346;2023-01-28T06:26:01;-2.70;1.00
1978;DHT22;989;53.016;8.346;2023-01-28T06:28:27;-2.70;1.00
1978;DHT22;989;53.016;8.346;2023-01-28T06:30:53;-2.90;1.00
1978;DHT22;989;53.016;8.346;2023-01-28T06:33:19;-3.10;1.00
1978;DHT22;989;53.016;8.346;2023-01-28T06:35:45;-3.20;1.00
1978;DHT22;989;53.016;8.346;2023-01-28T06:38:12;-3.30;1.00
1978;DHT22;989;53.016;8.346;2023-01-28T06:40:38;-3.30;1.00
1978;DHT22;989;53.016;8.346;2023-01-28T06:43:04;-3.30;1.00
1978;DHT22;989;53.016;8.346;2023-01-28T06:45:31;-3.30;1.00
1978;DHT22;989;53.016;8.346;2023-01-28T06:47:58;-3.30;1.00
1978;DHT22;989;53.016;8.346;2023-01-28T06:50:23;-3.30;1.00
1978;DHT22;989;53.016;8.346;2023-01-28T06:52:49;-3.30;6.30
1978;DHT22;989;53.016;8.346;2023-01-28T06:55:15;-3.20;7.20
1978;DHT22;989;53.016;8.346;2023-01-28T06:57:41;-3.20;7.70
1978;DHT22;989;53.016;8.346;2023-01-28T07:00:09;-3.30;7.10
1978;DHT22;989;53.016;8.346;2023-01-28T07:02:36;-3.30;8.30
1978;DHT22;989;53.016;8.346;2023-01-28T07:05:03;-3.30;11.30
1978;DHT22;989;53.016;8.346;2023-01-28T07:07:29;-3.20;17.00
1978;DHT22;989;53.016;8.346;2023-01-28T07:09:55;-3.10;19.30
1978;DHT22;989;53.016;8.346;2023-01-28T07:12:20;-3.20;16.00
1978;DHT22;989;53.016;8.346;2023-01-28T07:14:46;-3.30;16.80
1978;DHT22;989;53.016;8.346;2023-01-28T07:17:11;-3.40;14.80
1978;DHT22;989;53.016;8.346;2023-01-28T07:19:37;-3.50;14.80
1978;DHT22;989;53.016;8.346;2023-01-28T07:22:03;-3.40;18.20
1978;DHT22;989;53.016;8.346;2023-01-28T07:24:29;-3.40;18.50
1978;DHT22;989;53.016;8.346;2023-01-28T07:26:55;-3.40;24.10
1978;DHT22;989;53.016;8.346;2023-01-28T07:29:21;-3.20;31.30
1978;DHT22;989;53.016;8.346;2023-01-28T07:31:47;-3.10;29.40
1978;DHT22;989;53.016;8.346;2023-01-28T07:34:12;-3.10;33.50
1978;DHT22;989;53.016;8.346;2023-01-28T07:36:38;-2.80;42.10
1978;DHT22;989;53.016;8.346;2023-01-28T07:39:04;-2.80;39.50
1978;DHT22;989;53.016;8.346;2023-01-28T07:41:32;-2.70;43.40
1978;DHT22;989;53.016;8.346;2023-01-28T07:43:57;-2.60;45.90
1978;DHT22;989;53.016;8.346;2023-01-28T07:46:23;-2.40;55.00
1978;DHT22;989;53.016;8.346;2023-01-28T07:48:49;-2.20;60.30
1978;DHT22;989;53.016;8.346;2023-01-28T07:51:14;-2.10;60.30
1978;DHT22;989;53.016;8.346;2023-01-28T07:53:40;-2.10;58.90
1978;DHT22;989;53.016;8.346;2023-01-28T07:56:06;-2.20;54.90
1978;DHT22;989;53.016;8.346;2023-01-28T07:58:32;-2.30;55.10
1978;DHT22;989;53.016;8.346;2023-01-28T08:01:01;-2.40;53.30
1978;DHT22;989;53.016;8.346;2023-01-28T08:03:27;-2.30;55.80
1978;DHT22;989;53.016;8.346;2023-01-28T08:05:55;-2.20;60.00
1978;DHT22;989;53.016;8.346;2023-01-28T08:08:22;-2.00;69.30
1978;DHT22;989;53.016;8.346;2023-01-28T08:10:49;-1.70;75.50
1978;DHT22;989;53.016;8.346;2023-01-28T08:13:16;-1.50;85.20
1978;DHT22;989;53.016;8.346;2023-01-28T08:15:42;-1.20;88.40
1978;DHT22;989;53.016;8.346;2023-01-28T08:18:11;-1.10;87.90
1978;DHT22;989;53.016;8.346;2023-01-28T08:20:38;-1.00;90.40
1978;DHT22;989;53.016;8.346;2023-01-28T08:25:38;-0.70;91.70
1978;DHT22;989;53.016;8.346;2023-01-28T08:28:05;-0.70;90.60
1978;DHT22;989;53.016;8.346;2023-01-28T08:30:32;-0.60;89.50
1978;DHT22;989;53.016;8.346;2023-01-28T08:32:59;-0.70;82.30
1978;DHT22;989;53.016;8.346;2023-01-28T08:35:25;-0.80;72.60
1978;DHT22;989;53.016;8.346;2023-01-28T08:37:52;-0.80;69.70
1978;DHT22;989;53.016;8.346;2023-01-28T08:40:19;-0.90;61.80
1978;DHT22;989;53.016;8.346;2023-01-28T08:42:48;-0.80;56.20
1978;DHT22;989;53.016;8.346;2023-01-28T08:45:16;-0.70;58.90
1978;DHT22;989;53.016;8.346;2023-01-28T08:47:52;-0.60;47.50
1978;DHT22;989;53.016;8.346;2023-01-28T08:50:20;-0.50;42.80
1978;DHT22;989;53.016;8.346;2023-01-28T08:52:47;-0.40;36.80
1978;DHT22;989;53.016;8.346;2023-01-28T08:55:14;-0.30;26.50
1978;DHT22;989;53.016;8.346;2023-01-28T08:57:41;-0.20;19.10
1978;DHT22;989;53.016;8.346;2023-01-28T09:00:07;-0.10;10.60
1978;DHT22;989;53.016;8.346;2023-01-28T09:02:36;0.00;5.70
1978;DHT22;989;53.016;8.346;2023-01-28T09:05:03;0.10;1.00
1978;DHT22;989;53.016;8.346;2023-01-28T09:07:31;0.20;1.00
1978;DHT22;989;53.016;8.346;2023-01-28T09:09:59;0.20;1.00
1978;DHT22;989;53.016;8.346;2023-01-28T09:12:24;0.30;1.00
1978;DHT22;989;53.016;8.346;2023-01-28T09:14:50;0.40;1.00
1978;DHT22;989;53.016;8.346;2023-01-28T09:17:17;0.50;1.00
1978;DHT22;989;53.016;8.346;2023-01-28T09:19:43;0.70;1.00
1978;DHT22;989;53.016;8.346;2023-01-28T09:22:08;0.80;1.00
1978;DHT22;989;53.016;8.346;2023-01-28T09:24:34;1.00;1.00
1978;DHT22;989;53.016;8.346;2023-01-28T09:27:00;1.20;1.00
1978;DHT22;989;53.016;8.346;2023-01-28T09:29:25;1.30;1.00
1978;DHT22;989;53.016;8.346;2023-01-28T09:31:51;1.50;1.00
1978;DHT22;989;53.016;8.346;2023-01-28T09:34:16;1.60;1.00
1978;DHT22;989;53.016;8.346;2023-01-28T09:36:42;1.80;1.00
1978;DHT22;989;53.016;8.346;2023-01-28T09:39:08;1.80;1.00
1978;DHT22;989;53.016;8.346;2023-01-28T09:47:29;2.10;1.00
1978;DHT22;989;53.016;8.346;2023-01-28T09:50:00;2.20;1.00
1978;DHT22;989;53.016;8.346;2023-01-28T09:52:34;2.30;1.00
1978;DHT22;989;53.016;8.346;2023-01-28T09:55:06;2.40;1.00
1978;DHT22;989;53.016;8.346;2023-01-28T09:57:51;2.40;1.00
1978;DHT22;989;53.016;8.346;2023-01-28T10:00:21;2.60;1.00
1978;DHT22;989;53.016;8.346;2023-01-28T10:05:32;2.70;1.00
1978;DHT22;989;53.016;8.346;2023-01-28T10:14:18;3.00;1.00
1978;DHT22;989;53.016;8.346;2023-01-28T10:17:18;3.00;1.00
1978;DHT22;989;53.016;8.346;2023-01-28T10:20:39;2.90;1.00
1978;DHT22;989;53.016;8.346;2023-01-28T10:23:18;2.80;1.00
1978;DHT22;989;53.016;8.346;2023-01-28T10:25:47;2.50;1.00
1978;DHT22;989;53.016;8.346;2023-01-28T10:28:22;2.30;1.00
1978;DHT22;989;53.016;8.346;2023-01-28T10:30:50;2.40;1.00
1978;DHT22;989;53.016;8.346;2023-01-28T10:33:34;2.60;1.00
1978;DHT22;989;53.016;8.346;2023-01-28T10:36:02;3.10;1.00
1978;DHT22;989;53.016;8.346;2023-01-28T10:38:29;3.00;1.00
1978;DHT22;989;53.016;8.346;2023-01-28T10:41:04;2.90;1.00
1978;DHT22;989;53.016;8.346;2023-01-28T10:43:33;3.00;1.00
1978;DHT22;989;53.016;8.346;2023-01-28T10:46:20;3.10;1.00
1978;DHT22;989;53.016;8.346;2023-01-28T10:49:14;3.20;1.00
1978;DHT22;989;53.016;8.346;2023-01-28T10:51:43;3.30;1.00
1978;DHT22;989;53.016;8.346;2023-01-28T10:54:26;3.20;1.00
1978;DHT22;989;53.016;8.346;2023-01-28T10:57:00;3.40;1.00
1978;DHT22;989;53.016;8.346;2023-01-28T10:59:28;3.20;1.00
1978;DHT22;989;53.016;8.346;2023-01-28T11:01:58;3.10;1.00
1978;DHT22;989;53.016;8.346;2023-01-28T11:04:29;3.10;1.00
1978;DHT22;989;53.016;8.346;2023-01-28T11:07:02;3.20;1.00
1978;DHT22;989;53.016;8.346;2023-01-28T11:09:32;3.10;1.00
1978;DHT22;989;53.016;8.346;2023-01-28T11:12:23;3.10;1.00
1978;DHT22;989;53.016;8.346;2023-01-28T11:14:54;3.10;1.00
1978;DHT22;989;53.016;8.346;2023-01-28T11:17:23;3.00;1.00
1978;DHT22;989;53.016;8.346;2023-01-28T11:19:52;3.10;1.00
1978;DHT22;989;53.016;8.346;2023-01-28T11:22:32;3.30;1.00
1978;DHT22;989;53.016;8.346;2023-01-28T11:25:03;3.20;1.00
1978;DHT22;989;53.016;8.346;2023-01-28T11:27:38;3.20;1.00
1978;DHT22;989;53.016;8.346;2023-01-28T11:30:05;3.40;1.00
1978;DHT22;989;53.016;8.346;2023-01-28T11:32:41;3.40;1.00
1978;DHT22;989;53.016;8.346;2023-01-28T11:35:07;3.60;1.00
1978;DHT22;989;53.016;8.346;2023-01-28T11:37:48;3.60;1.00
1978;DHT22;989;53.016;8.346;2023-01-28T11:40:18;3.80;1.00
1978;DHT22;989;53.016;8.346;2023-01-28T11:42:47;3.80;1.00
1978;DHT22;989;53.016;8.346;2023-01-28T11:45:17;3.80;1.00
1978;DHT22;989;53.016;8.346;2023-01-28T11:48:05;3.50;1.00
1978;DHT22;989;53.016;8.346;2023-01-28T11:50:58;3.60;1.00
1978;DHT22;989;53.016;8.346;2023-01-28T11:53:35;3.80;1.00
1978;DHT22;989;53.016;8.346;2023-01-28T12:02:36;4.50;1.00
1978;DHT22;989;53.016;8.346;2023-01-28T12:05:31;5.30;1.00
1978;DHT22;989;53.016;8.346;2023-01-28T12:08:25;5.50;1.00
1978;DHT22;989;53.016;8.346;2023-01-28T12:11:13;5.80;1.00
1978;DHT22;989;53.016;8.346;2023-01-28T12:20:29;6.40;1.00
1978;DHT22;989;53.016;8.346;2023-01-28T12:28:50;5.60;1.00
1978;DHT22;989;53.016;8.346;2023-01-28T12:34:40;5.70;1.00
1978;DHT22;989;53.016;8.346;2023-01-28T12:37:32;5.30;1.00
1978;DHT22;989;53.016;8.346;2023-01-28T12:42:50;5.20;1.00
1978;DHT22;989;53.016;8.346;2023-01-28T12:45:25;5.20;1.00
1978;DHT22;989;53.016;8.346;2023-01-28T12:48:01;5.40;1.00
1978;DHT22;989;53.016;8.346;2023-01-28T12:50:43;5.50;1.00
1978;DHT22;989;53.016;8.346;2023-01-28T12:53:25;5.40;1.00
1978;DHT22;989;53.016;8.346;2023-01-28T12:55:59;5.20;1.00
1978;DHT22;989;53.016;8.346;2023-01-28T12:58:40;5.30;1.00
1978;DHT22;989;53.016;8.346;2023-01-28T13:01:17;5.40;1.00
1978;DHT22;989;53.016;8.346;2023-01-28T13:04:11;5.30;1.00
1978;DHT22;989;53.016;8.346;2023-01-28T13:06:46;5.20;1.00
1978;DHT22;989;53.016;8.346;2023-01-28T13:09:19;5.30;1.00
1978;DHT22;989;53.016;8.346;2023-01-28T13:11:47;4.90;1.00
1978;DHT22;989;53.016;8.346;2023-01-28T13:14:15;4.80;1.00
1978;DHT22;989;53.016;8.346;2023-01-28T13:16:41;5.10;1.00
1978;DHT22;989;53.016;8.346;2023-01-28T13:19:37;5.20;1.00
1978;DHT22;989;53.016;8.346;2023-01-28T13:22:23;5.10;1.00
1978;DHT22;989;53.016;8.346;2023-01-28T13:24:54;5.20;1.00
1978;DHT22;989;53.016;8.346;2023-01-28T13:27:27;4.80;1.00
1978;DHT22;989;53.016;8.346;2023-01-28T13:30:03;4.50;1.00
1978;DHT22;989;53.016;8.346;2023-01-28T13:33:05;4.20;1.00
1978;DHT22;989;53.016;8.346;2023-01-28T13:35:39;4.20;1.00
1978;DHT22;989;53.016;8.346;2023-01-28T13:38:23;4.20;1.00
1978;DHT22;989;53.016;8.346;2023-01-28T13:41:00;4.20;1.00
1978;DHT22;989;53.016;8.346;2023-01-28T13:43:34;4.30;1.00
1978;DHT22;989;53.016;8.346;2023-01-28T13:46:26;4.30;1.00
1978;DHT22;989;53.016;8.346;2023-01-28T13:48:55;4.30;1.00
1978;DHT22;989;53.016;8.346;2023-01-28T13:51:36;4.30;1.00
1978;DHT22;989;53.016;8.346;2023-01-28T13:54:15;4.30;1.00
1978;DHT22;989;53.016;8.346;2023-01-28T13:57:11;4.30;1.00
1978;DHT22;989;53.016;8.346;2023-01-28T14:00:24;4.40;1.00
1978;DHT22;989;53.016;8.346;2023-01-28T14:09:00;4.70;1.00
1978;DHT22;989;53.016;8.346;2023-01-28T14:11:49;4.90;1.00
1978;DHT22;989;53.016;8.346;2023-01-28T14:17:49;5.00;1.00
1978;DHT22;989;53.016;8.346;2023-01-28T14:20:21;5.00;1.00
1978;DHT22;989;53.016;8.346;2023-01-28T14:22:49;4.90;1.00
1978;DHT22;989;53.016;8.346;2023-01-28T14:25:19;4.90;1.00
1978;DHT22;989;53.016;8.346;2023-01-28T14:27:51;4.90;1.00
1978;DHT22;989;53.016;8.346;2023-01-28T14:30:46;5.00;1.00
1978;DHT22;989;53.016;8.346;2023-01-28T14:33:17;5.00;1.00
1978;DHT22;989;53.016;8.346;2023-01-28T14:35:45;5.10;1.00
1978;DHT22;989;53.016;8.346;2023-01-28T14:38:15;5.10;1.00
1978;DHT22;989;53.016;8.346;2023-01-28T14:40:43;5.10;1.00
1978;DHT22;989;53.016;8.346;2023-01-28T14:43:15;5.00;1.00
1978;DHT22;989;53.016;8.346;2023-01-28T14:49:05;4.90;1.00
1978;DHT22;989;53.016;8.346;2023-01-28T14:55:03;4.90;1.00
1978;DHT22;989;53.016;8.346;2023-01-28T14:57:44;4.80;1.00
1978;DHT22;989;53.016;8.346;2023-01-28T15:00:33;4.70;1.00
1978;DHT22;989;53.016;8.346;2023-01-28T15:02:59;4.70;1.00
1978;DHT22;989;53.016;8.346;2023-01-28T15:05:27;4.60;1.00
1978;DHT22;989;53.016;8.346;2023-01-28T15:07:53;4.60;1.00
1978;DHT22;989;53.016;8.346;2023-01-28T15:10:24;4.70;1.00
1978;DHT22;989;53.016;8.346;2023-01-28T15:13:06;4.70;1.00
1978;DHT22;989;53.016;8.346;2023-01-28T15:15:35;4.60;1.00
1978;DHT22;989;53.016;8.346;2023-01-28T15:18:17;4.60;1.00
1978;DHT22;989;53.016;8.346;2023-01-28T15:20:49;4.70;1.00
1978;DHT22;989;53.016;8.346;2023-01-28T15:23:19;4.60;1.00
1978;DHT22;989;53.016;8.346;2023-01-28T15:25:49;4.60;1.00
1978;DHT22;989;53.016;8.346;2023-01-28T15:28:28;4.60;1.00
1978;DHT22;989;53.016;8.346;2023-01-28T15:30:56;4.60;1.00
1978;DHT22;989;53.016;8.346;2023-01-28T15:33:24;4.60;1.00
1978;DHT22;989;53.016;8.346;2023-01-28T15:35:51;4.50;1.00
1978;DHT22;989;53.016;8.346;2023-01-28T15:38:19;4.60;1.00
1978;DHT22;989;53.016;8.346;2023-01-28T15:40:53;4.60;1.00
1978;DHT22;989;53.016;8.346;2023-01-28T15:43:31;4.50;1.00
1978;DHT22;989;53.016;8.346;2023-01-28T15:46:00;4.40;1.00
1978;DHT22;989;53.016;8.346;2023-01-28T15:48:29;4.40;1.00
1978;DHT22;989;53.016;8.346;2023-01-28T15:51:00;4.30;1.00
1978;DHT22;989;53.016;8.346;2023-01-28T15:53:32;4.30;1.00
1978;DHT22;989;53.016;8.346;2023-01-28T15:56:14;4.30;1.00
1978;DHT22;989;53.016;8.346;2023-01-28T15:58:41;4.30;1.00
1978;DHT22;989;53.016;8.346;2023-01-28T16:03:32;4.20;1.00
1978;DHT22;989;53.016;8.346;2023-01-28T16:06:03;4.20;1.00
1978;DHT22;989;53.016;8.346;2023-01-28T16:11:11;4.00;1.00
1978;DHT22;989;53.016;8.346;2023-01-28T16:13:42;3.90;1.00
1978;DHT22;989;53.016;8.346;2023-01-28T16:16:09;3.80;1.00
1978;DHT22;989;53.016;8.346;2023-01-28T16:18:43;3.80;1.00
1978;DHT22;989;53.016;8.346;2023-01-28T16:21:37;3.70;1.00
1978;DHT22;989;53.016;8.346;2023-01-28T16:24:29;3.50;1.00
1978;DHT22;989;53.016;8.346;2023-01-28T16:27:02;3.40;1.00
1978;DHT22;989;53.016;8.346;2023-01-28T16:29:42;3.30;1.00
1978;DHT22;989;53.016;8.346;2023-01-28T16:32:29;3.30;1.00
1978;DHT22;989;53.016;8.346;2023-01-28T16:34:59;3.20;1.00
1978;DHT22;989;53.016;8.346;2023-01-28T16:37:25;3.10;1.00
1978;DHT22;989;53.016;8.346;2023-01-28T16:39:51;3.20;1.00
1978;DHT22;989;53.016;8.346;2023-01-28T16:42:17;3.20;1.00
1978;DHT22;989;53.016;8.346;2023-01-28T16:44:43;3.30;1.00
1978;DHT22;989;53.016;8.346;2023-01-28T16:47:09;3.40;1.00
1978;DHT22;989;53.016;8.346;2023-01-28T16:49:36;3.50;1.00
1978;DHT22;989;53.016;8.346;2023-01-28T16:52:02;3.60;1.00
1978;DHT22;989;53.016;8.346;2023-01-28T16:54:29;3.80;1.00
1978;DHT22;989;53.016;8.346;2023-01-28T16:56:55;3.90;1.00
1978;DHT22;989;53.016;8.346;2023-01-28T16:59:21;3.90;1.00
1978;DHT22;989;53.016;8.346;2023-01-28T17:01:48;4.10;1.00
1978;DHT22;989;53.016;8.346;2023-01-28T17:04:14;4.20;1.00
1978;DHT22;989;53.016;8.346;2023-01-28T17:06:41;4.20;1.00
1978;DHT22;989;53.016;8.346;2023-01-28T17:09:09;4.20;1.00
1978;DHT22;989;53.016;8.346;2023-01-28T17:11:36;4.20;1.00
1978;DHT22;989;53.016;8.346;2023-01-28T17:14:01;4.20;1.00
1978;DHT22;989;53.016;8.346;2023-01-28T17:16:27;4.10;1.00
1978;DHT22;989;53.016;8.346;2023-01-28T17:18:53;4.10;1.00
1978;DHT22;989;53.016;8.346;2023-01-28T17:21:20;4.00;1.00
1978;DHT22;989;53.016;8.346;2023-01-28T17:23:46;3.90;1.00
1978;DHT22;989;53.016;8.346;2023-01-28T17:26:14;3.90;1.00
1978;DHT22;989;53.016;8.346;2023-01-28T17:28:41;3.90;1.00
1978;DHT22;989;53.016;8.346;2023-01-28T17:31:12;3.80;1.00
1978;DHT22;989;53.016;8.346;2023-01-28T17:33:39;3.80;1.00
1978;DHT22;989;53.016;8.346;2023-01-28T17:36:05;3.80;1.00
1978;DHT22;989;53.016;8.346;2023-01-28T17:38:32;3.90;1.00
1978;DHT22;989;53.016;8.346;2023-01-28T17:41:05;3.90;1.00
1978;DHT22;989;53.016;8.346;2023-01-28T17:43:32;3.80;1.00
1978;DHT22;989;53.016;8.346;2023-01-28T17:45:59;3.90;1.00
1978;DHT22;989;53.016;8.346;2023-01-28T17:48:26;3.90;1.00
1978;DHT22;989;53.016;8.346;2023-01-28T17:50:56;3.80;1.00
1978;DHT22;989;53.016;8.346;2023-01-28T17:53:22;3.80;1.00
1978;DHT22;989;53.016;8.346;2023-01-28T17:55:48;3.70;1.00
1978;DHT22;989;53.016;8.346;2023-01-28T17:58:13;3.70;1.00
1978;DHT22;989;53.016;8.346;2023-01-28T18:00:39;3.60;1.00
1978;DHT22;989;53.016;8.346;2023-01-28T18:03:05;3.60;1.00
1978;DHT22;989;53.016;8.346;2023-01-28T18:05:31;3.60;1.00
1978;DHT22;989;53.016;8.346;2023-01-28T18:07:56;3.60;1.00
1978;DHT22;989;53.016;8.346;2023-01-28T18:10:22;3.60;1.00
1978;DHT22;989;53.016;8.346;2023-01-28T18:12:48;3.50;1.00
1978;DHT22;989;53.016;8.346;2023-01-28T18:15:14;3.50;1.00
1978;DHT22;989;53.016;8.346;2023-01-28T18:17:39;3.60;1.00
1978;DHT22;989;53.016;8.346;2023-01-28T18:20:05;3.60;1.00
1978;DHT22;989;53.016;8.346;2023-01-28T18:22:32;3.60;1.00
1978;DHT22;989;53.016;8.346;2023-01-28T18:24:57;3.50;1.00
1978;DHT22;989;53.016;8.346;2023-01-28T18:27:23;3.50;1.00
1978;DHT22;989;53.016;8.346;2023-01-28T18:29:49;3.50;1.00
1978;DHT22;989;53.016;8.346;2023-01-28T18:32:16;3.50;1.00
1978;DHT22;989;53.016;8.346;2023-01-28T18:34:42;3.50;1.00
1978;DHT22;989;53.016;8.346;2023-01-28T18:37:08;3.50;1.00